sensor_id;sensor_type;location;lat;lon;timestamp;temperature;humidity
22578;DHT22;11455;52.390;13.028;2023-08-20T00:01:34;26.80;99.90
22578;DHT22;11455;52.390;13.028;2023-08-20T00:04:00;26.90;99.90
22578;DHT22;11455;52.390;13.028;2023-08-20T00:06:32;27.00;99.90
22578;DHT22;11455;52.390;13.028;2023-08-20T00:09:05;27.00;99.90
22578;DHT22;11455;52.390;13.028;2023-08-20T00:11:40;27.00;99.90
22578;DHT22;11455;52.390;13.028;2023-08-20T00:14:16;27.10;99.90
22578;DHT22;11455;52.390;13.028;2023-08-20T00:16:51;27.10;99.90
22578;DHT22;11455;52.390;13.028;2023-08-20T00:19:24;27.10;99.90
22578;DHT22;11455;52.390;13.028;2023-08-20T00:21:50;27.10;99.90
22578;DHT22;11455;52.390;13.028;2023-08-20T00:24:22;27.10;99.90
22578;DHT22;11455;52.390;13.028;2023-08-20T00:26:55;27.00;99.90
22578;DHT22;11455;52.390;13.028;2023-08-20T00:29:27;26.90;99.90
22578;DHT22;11455;52.390;13.028;2023-08-20T00:32:06;26.90;99.90
22578;DHT22;11455;52.390;13.028;2023-08-20T00:34:38;26.90;99.90
22578;DHT22;11455;52.390;13.028;2023-08-20T00:37:20;26.90;99.90
22578;DHT22;11455;52.390;13.028;2023-08-20T00:39:52;26.90;99.90
22578;DHT22;11455;52.390;13.028;2023-08-20T00:42:24;26.80;99.90
22578;DHT22;11455;52.390;13.028;2023-08-20T00:45:00;26.60;99.90
22578;DHT22;11455;52.390;13.028;2023-08-20T00:47:32;26.50;99.90
22578;DHT22;11455;52.390;13.028;2023-08-20T00:50:06;26.40;99.90
22578;DHT22;11455;52.390;13.028;2023-08-20T00:52:33;26.40;99.90
22578;DHT22;11455;52.390;13.028;2023-08-20T00:55:11;26.30;99.90
22578;DHT22;11455;52.390;13.028;2023-08-20T00:57:45;26.20;99.90
22578;DHT22;11455;52.390;13.028;2023-08-20T01:00:17;26.10;99.90
22578;DHT22;11455;52.390;13.028;2023-08-20T01:02:52;26.00;99.90
22578;DHT22;11455;52.390;13.028;2023-08-20T01:05:24;26.00;99.90
22578;DHT22;11455;52.390;13.028;2023-08-20T01:08:32;26.00;99.90
22578;DHT22;11455;52.390;13.028;2023-08-20T01:11:08;26.00;99.90
22578;DHT22;11455;52.390;13.028;2023-08-20T01:13:43;25.90;99.90
22578;DHT22;11455;52.390;13.028;2023-08-20T01:16:15;25.80;99.90
22578;DHT22;11455;52.390;13.028;2023-08-20T01:18:47;25.70;99.90
22578;DHT22;11455;52.390;13.028;2023-08-20T01:21:37;25.60;99.90
22578;DHT22;11455;52.390;13.028;2023-08-20T01:24:23;25.50;99.90
22578;DHT22;11455;52.390;13.028;2023-08-20T01:27:28;25.50;99.90
22578;DHT22;11455;52.390;13.028;2023-08-20T01:30:03;25.50;99.90
22578;DHT22;11455;52.390;13.028;2023-08-20T01:32:43;25.50;99.90
22578;DHT22;11455;52.390;13.028;2023-08-20T01:35:16;25.40;99.90
22578;DHT22;11455;52.390;13.028;2023-08-20T01:37:56;25.40;99.90
22578;DHT22;11455;52.390;13.028;2023-08-20T01:40:30;25.40;99.90
22578;DHT22;11455;52.390;13.028;2023-08-20T01:43:03;25.30;99.90
22578;DHT22;11455;52.390;13.028;2023-08-20T01:45:35;25.30;99.90
22578;DHT22;11455;52.390;13.028;2023-08-20T01:48:07;25.20;99.90
22578;DHT22;11455;52.390;13.028;2023-08-20T01:50:39;25.20;99.90
22578;DHT22;11455;52.390;13.028;2023-08-20T01:53:14;25.20;1.00
22578;DHT22;11455;52.390;13.028;2023-08-20T01:55:46;25.20;99.90
22578;DHT22;11455;52.390;13.028;2023-08-20T01:58:18;25.20;99.90
22578;DHT22;11455;52.390;13.028;2023-08-20T02:00:45;25.20;99.90
22578;DHT22;11455;52.390;13.028;2023-08-20T02:03:18;25.30;99.90
22578;DHT22;11455;52.390;13.028;2023-08-20T02:05:50;25.30;99.90
22578;DHT22;11455;52.390;13.028;2023-08-20T02:08:22;25.30;99.90
22578;DHT22;11455;52.390;13.028;2023-08-20T02:11:04;25.40;99.90
22578;DHT22;11455;52.390;13.028;2023-08-20T02:13:37;25.40;99.90
22578;DHT22;11455;52.390;13.028;2023-08-20T02:16:09;25.40;99.90
22578;DHT22;11455;52.390;13.028;2023-08-20T02:18:42;25.40;99.90
22578;DHT22;11455;52.390;13.028;2023-08-20T02:21:14;25.40;99.90
22578;DHT22;11455;52.390;13.028;2023-08-20T02:23:47;25.30;99.90
22578;DHT22;11455;52.390;13.028;2023-08-20T02:26:20;25.20;1.00
22578;DHT22;11455;52.390;13.028;2023-08-20T02:28:52;25.00;1.00
22578;DHT22;11455;52.390;13.028;2023-08-20T02:31:24;25.00;1.00
22578;DHT22;11455;52.390;13.028;2023-08-20T02:34:03;24.90;1.00
22578;DHT22;11455;52.390;13.028;2023-08-20T02:36:29;24.80;1.00
22578;DHT22;11455;52.390;13.028;2023-08-20T02:39:01;24.80;1.00
22578;DHT22;11455;52.390;13.028;2023-08-20T02:41:35;24.70;1.00
22578;DHT22;11455;52.390;13.028;2023-08-20T02:44:10;24.70;1.00
22578;DHT22;11455;52.390;13.028;2023-08-20T02:46:42;24.70;1.00
22578;DHT22;11455;52.390;13.028;2023-08-20T02:49:16;24.70;1.00
22578;DHT22;11455;52.390;13.028;2023-08-20T02:51:48;24.70;1.00
22578;DHT22;11455;52.390;13.028;2023-08-20T02:54:20;24.70;1.00
22578;DHT22;11455;52.390;13.028;2023-08-20T02:56:52;24.60;1.00
22578;DHT22;11455;52.390;13.028;2023-08-20T02:59:24;24.60;1.00
22578;DHT22;11455;52.390;13.028;2023-08-20T03:01:56;24.60;1.00
22578;DHT22;11455;52.390;13.028;2023-08-20T03:04:28;24.50;1.00
22578;DHT22;11455;52.390;13.028;2023-08-20T03:07:01;24.40;1.00
22578;DHT22;11455;52.390;13.028;2023-08-20T03:09:35;24.30;1.00
22578;DHT22;11455;52.390;13.028;2023-08-20T03:12:15;24.20;1.00
22578;DHT22;11455;52.390;13.028;2023-08-20T03:14:47;24.10;1.00
22578;DHT22;11455;52.390;13.028;2023-08-20T03:17:21;24.10;1.00
22578;DHT22;11455;52.390;13.028;2023-08-20T03:19:55;24.10;1.00
22578;DHT22;11455;52.390;13.028;2023-08-20T03:22:28;24.00;1.00
22578;DHT22;11455;52.390;13.028;2023-08-20T03:25:00;23.90;1.00
22578;DHT22;11455;52.390;13.028;2023-08-20T03:27:32;23.90;1.00
22578;DHT22;11455;52.390;13.028;2023-08-20T03:30:06;23.90;1.00
22578;DHT22;11455;52.390;13.028;2023-08-20T03:32:45;23.80;1.00
22578;DHT22;11455;52.390;13.028;2023-08-20T03:35:18;23.80;1.00
22578;DHT22;11455;52.390;13.028;2023-08-20T03:37:50;23.80;1.00
22578;DHT22;11455;52.390;13.028;2023-08-20T03:40:22;23.70;1.00
22578;DHT22;11455;52.390;13.028;2023-08-20T03:42:54;23.70;1.00
22578;DHT22;11455;52.390;13.028;2023-08-20T03:45:27;23.70;1.00
22578;DHT22;11455;52.390;13.028;2023-08-20T03:48:00;23.80;1.00
22578;DHT22;11455;52.390;13.028;2023-08-20T03:50:26;23.70;1.00
22578;DHT22;11455;52.390;13.028;2023-08-20T03:52:58;23.70;1.00
22578;DHT22;11455;52.390;13.028;2023-08-20T03:55:30;23.70;1.00
22578;DHT22;11455;52.390;13.028;2023-08-20T03:58:02;23.70;1.00
22578;DHT22;11455;52.390;13.028;2023-08-20T04:00:36;23.60;1.00
22578;DHT22;11455;52.390;13.028;2023-08-20T04:03:10;23.60;1.00
22578;DHT22;11455;52.390;13.028;2023-08-20T04:05:44;23.60;1.00
22578;DHT22;11455;52.390;13.028;2023-08-20T04:08:17;23.60;1.00
22578;DHT22;11455;52.390;13.028;2023-08-20T04:10:52;23.70;1.00
22578;DHT22;11455;52.390;13.028;2023-08-20T04:13:26;23.80;1.00
22578;DHT22;11455;52.390;13.028;2023-08-20T04:15:58;23.80;1.00
22578;DHT22;11455;52.390;13.028;2023-08-20T04:18:30;23.80;1.00
22578;DHT22;11455;52.390;13.028;2023-08-20T04:21:02;23.70;1.00
22578;DHT22;11455;52.390;13.028;2023-08-20T04:23:34;23.70;1.00
22578;DHT22;11455;52.390;13.028;2023-08-20T04:26:00;23.60;1.00
22578;DHT22;11455;52.390;13.028;2023-08-20T04:28:32;23.60;1.00
22578;DHT22;11455;52.390;13.028;2023-08-20T04:31:04;23.50;1.00
22578;DHT22;11455;52.390;13.028;2023-08-20T04:33:49;23.40;1.00
22578;DHT22;11455;52.390;13.028;2023-08-20T04:36:29;23.40;1.00
22578;DHT22;11455;52.390;13.028;2023-08-20T04:39:01;23.40;1.00
22578;DHT22;11455;52.390;13.028;2023-08-20T04:41:37;23.40;1.00
22578;DHT22;11455;52.390;13.028;2023-08-20T04:44:14;23.60;1.00
22578;DHT22;11455;52.390;13.028;2023-08-20T04:46:47;23.60;1.00
22578;DHT22;11455;52.390;13.028;2023-08-20T04:49:22;23.80;1.00
22578;DHT22;11455;52.390;13.028;2023-08-20T04:51:47;24.00;1.00
22578;DHT22;11455;52.390;13.028;2023-08-20T04:54:20;24.20;1.00
22578;DHT22;11455;52.390;13.028;2023-08-20T04:56:52;24.20;1.00
22578;DHT22;11455;52.390;13.028;2023-08-20T04:59:27;24.20;1.00
22578;DHT22;11455;52.390;13.028;2023-08-20T05:02:01;24.10;1.00
22578;DHT22;11455;52.390;13.028;2023-08-20T05:04:39;24.00;1.00
22578;DHT22;11455;52.390;13.028;2023-08-20T05:07:12;23.90;1.00
22578;DHT22;11455;52.390;13.028;2023-08-20T05:09:47;23.90;1.00
22578;DHT22;11455;52.390;13.028;2023-08-20T05:12:19;23.80;1.00
22578;DHT22;11455;52.390;13.028;2023-08-20T05:14:51;23.70;1.00
22578;DHT22;11455;52.390;13.028;2023-08-20T05:17:23;23.60;1.00
22578;DHT22;11455;52.390;13.028;2023-08-20T05:19:57;23.60;1.00
22578;DHT22;11455;52.390;13.028;2023-08-20T05:22:29;23.60;1.00
22578;DHT22;11455;52.390;13.028;2023-08-20T05:25:02;23.60;1.00
22578;DHT22;11455;52.390;13.028;2023-08-20T05:27:30;23.60;1.00
22578;DHT22;11455;52.390;13.028;2023-08-20T05:30:03;23.50;1.00
22578;DHT22;11455;52.390;13.028;2023-08-20T05:32:37;23.30;1.00
22578;DHT22;11455;52.390;13.028;2023-08-20T05:35:10;23.30;1.00
22578;DHT22;11455;52.390;13.028;2023-08-20T05:37:43;23.20;1.00
22578;DHT22;11455;52.390;13.028;2023-08-20T05:40:16;23.10;1.00
22578;DHT22;11455;52.390;13.028;2023-08-20T05:42:48;23.10;1.00
22578;DHT22;11455;52.390;13.028;2023-08-20T05:45:20;23.20;99.90
22578;DHT22;11455;52.390;13.028;2023-08-20T05:47:46;23.20;99.90
22578;DHT22;11455;52.390;13.028;2023-08-20T05:50:20;23.10;99.90
22578;DHT22;11455;52.390;13.028;2023-08-20T05:52:53;23.10;99.90
22578;DHT22;11455;52.390;13.028;2023-08-20T05:55:30;23.00;99.90
22578;DHT22;11455;52.390;13.028;2023-08-20T05:58:03;23.00;99.90
22578;DHT22;11455;52.390;13.028;2023-08-20T06:00:36;22.90;99.90
22578;DHT22;11455;52.390;13.028;2023-08-20T06:03:08;22.90;99.90
22578;DHT22;11455;52.390;13.028;2023-08-20T06:05:40;22.80;99.90
22578;DHT22;11455;52.390;13.028;2023-08-20T06:08:12;22.80;99.90
22578;DHT22;11455;52.390;13.028;2023-08-20T06:10:44;22.80;99.90
22578;DHT22;11455;52.390;13.028;2023-08-20T06:13:16;22.90;93.60
22578;DHT22;11455;52.390;13.028;2023-08-20T06:15:42;23.00;79.60
22578;DHT22;11455;52.390;13.028;2023-08-20T06:18:14;23.00;72.50
22578;DHT22;11455;52.390;13.028;2023-08-20T06:20:46;23.10;46.30
22578;DHT22;11455;52.390;13.028;2023-08-20T06:23:21;23.10;20.90
22578;DHT22;11455;52.390;13.028;2023-08-20T06:25:53;23.10;25.70
22578;DHT22;11455;52.390;13.028;2023-08-20T06:28:25;23.00;36.20
22578;DHT22;11455;52.390;13.028;2023-08-20T06:30:57;23.10;24.70
22578;DHT22;11455;52.390;13.028;2023-08-20T06:33:29;23.10;16.80
22578;DHT22;11455;52.390;13.028;2023-08-20T06:36:08;23.00;12.30
22578;DHT22;11455;52.390;13.028;2023-08-20T06:38:42;23.00;20.10
22578;DHT22;11455;52.390;13.028;2023-08-20T06:41:15;22.90;8.30
22578;DHT22;11455;52.390;13.028;2023-08-20T06:43:47;22.80;11.10
22578;DHT22;11455;52.390;13.028;2023-08-20T06:46:19;22.80;25.80
22578;DHT22;11455;52.390;13.028;2023-08-20T06:48:51;22.80;48.60
22578;DHT22;11455;52.390;13.028;2023-08-20T06:51:25;22.80;57.90
22578;DHT22;11455;52.390;13.028;2023-08-20T06:53:59;22.80;76.90
22578;DHT22;11455;52.390;13.028;2023-08-20T06:56:25;22.80;79.10
22578;DHT22;11455;52.390;13.028;2023-08-20T06:58:57;22.90;93.10
22578;DHT22;11455;52.390;13.028;2023-08-20T07:01:29;23.00;64.50
22578;DHT22;11455;52.390;13.028;2023-08-20T07:04:02;23.00;62.50
22578;DHT22;11455;52.390;13.028;2023-08-20T07:06:34;23.00;91.50
22578;DHT22;11455;52.390;13.028;2023-08-20T07:09:06;23.10;73.00
22578;DHT22;11455;52.390;13.028;2023-08-20T07:11:40;23.10;74.00
22578;DHT22;11455;52.390;13.028;2023-08-20T07:14:13;23.10;54.90
22578;DHT22;11455;52.390;13.028;2023-08-20T07:16:45;23.00;76.00
22578;DHT22;11455;52.390;13.028;2023-08-20T07:19:17;23.00;81.00
22578;DHT22;11455;52.390;13.028;2023-08-20T07:21:43;23.00;75.10
22578;DHT22;11455;52.390;13.028;2023-08-20T07:24:15;23.00;82.10
22578;DHT22;11455;52.390;13.028;2023-08-20T07:26:47;23.10;70.00
22578;DHT22;11455;52.390;13.028;2023-08-20T07:29:19;23.10;84.20
22578;DHT22;11455;52.390;13.028;2023-08-20T07:31:51;23.10;73.00
22578;DHT22;11455;52.390;13.028;2023-08-20T07:34:23;23.00;90.30
22578;DHT22;11455;52.390;13.028;2023-08-20T07:36:55;23.10;98.20
22578;DHT22;11455;52.390;13.028;2023-08-20T07:39:28;23.10;86.80
22578;DHT22;11455;52.390;13.028;2023-08-20T07:42:00;23.20;99.90
22578;DHT22;11455;52.390;13.028;2023-08-20T07:44:37;23.30;90.70
22578;DHT22;11455;52.390;13.028;2023-08-20T07:47:11;23.40;87.50
22578;DHT22;11455;52.390;13.028;2023-08-20T07:49:47;23.40;87.10
22578;DHT22;11455;52.390;13.028;2023-08-20T07:52:12;23.60;16.90
22578;DHT22;11455;52.390;13.028;2023-08-20T07:54:47;23.60;31.50
22578;DHT22;11455;52.390;13.028;2023-08-20T07:57:20;23.70;35.80
22578;DHT22;11455;52.390;13.028;2023-08-20T07:59:53;23.80;11.40
22578;DHT22;11455;52.390;13.028;2023-08-20T08:02:27;23.90;1.00
22578;DHT22;11455;52.390;13.028;2023-08-20T08:05:00;23.80;1.00
22578;DHT22;11455;52.390;13.028;2023-08-20T08:07:32;23.80;1.00
22578;DHT22;11455;52.390;13.028;2023-08-20T08:10:04;23.90;1.00
22578;DHT22;11455;52.390;13.028;2023-08-20T08:12:39;24.10;1.00
22578;DHT22;11455;52.390;13.028;2023-08-20T08:15:13;24.20;1.00
22578;DHT22;11455;52.390;13.028;2023-08-20T08:17:45;24.30;1.00
22578;DHT22;11455;52.390;13.028;2023-08-20T08:20:17;24.40;1.00
22578;DHT22;11455;52.390;13.028;2023-08-20T08:22:51;24.50;1.00
22578;DHT22;11455;52.390;13.028;2023-08-20T08:25:23;24.70;1.00
22578;DHT22;11455;52.390;13.028;2023-08-20T08:27:55;24.80;1.00
22578;DHT22;11455;52.390;13.028;2023-08-20T08:30:27;24.80;1.00
22578;DHT22;11455;52.390;13.028;2023-08-20T08:32:55;24.90;1.00
22578;DHT22;11455;52.390;13.028;2023-08-20T08:35:30;25.10;1.00
22578;DHT22;11455;52.390;13.028;2023-08-20T08:38:02;25.10;1.00
22578;DHT22;11455;52.390;13.028;2023-08-20T08:40:29;25.20;1.00
22578;DHT22;11455;52.390;13.028;2023-08-20T08:43:02;25.20;1.00
22578;DHT22;11455;52.390;13.028;2023-08-20T08:45:35;25.30;1.00
22578;DHT22;11455;52.390;13.028;2023-08-20T08:48:07;25.30;1.00
22578;DHT22;11455;52.390;13.028;2023-08-20T08:50:40;25.30;1.00
22578;DHT22;11455;52.390;13.028;2023-08-20T08:53:13;25.30;1.00
22578;DHT22;11455;52.390;13.028;2023-08-20T08:55:47;25.30;1.00
22578;DHT22;11455;52.390;13.028;2023-08-20T08:58:21;25.40;1.00
22578;DHT22;11455;52.390;13.028;2023-08-20T09:00:56;25.50;1.00
22578;DHT22;11455;52.390;13.028;2023-08-20T09:03:28;25.60;1.00
22578;DHT22;11455;52.390;13.028;2023-08-20T09:06:01;25.70;1.00
22578;DHT22;11455;52.390;13.028;2023-08-20T09:08:35;25.70;1.00
22578;DHT22;11455;52.390;13.028;2023-08-20T09:11:07;25.80;1.00
22578;DHT22;11455;52.390;13.028;2023-08-20T09:13:41;25.70;1.00
22578;DHT22;11455;52.390;13.028;2023-08-20T09:16:14;25.70;1.00
22578;DHT22;11455;52.390;13.028;2023-08-20T09:18:48;25.60;1.00
22578;DHT22;11455;52.390;13.028;2023-08-20T09:21:27;25.80;1.00
22578;DHT22;11455;52.390;13.028;2023-08-20T09:24:01;25.80;1.00
22578;DHT22;11455;52.390;13.028;2023-08-20T09:26:27;25.90;1.00
22578;DHT22;11455;52.390;13.028;2023-08-20T09:29:03;26.00;1.00
22578;DHT22;11455;52.390;13.028;2023-08-20T09:31:39;26.10;1.00
22578;DHT22;11455;52.390;13.028;2023-08-20T09:34:18;26.30;1.00
22578;DHT22;11455;52.390;13.028;2023-08-20T09:36:50;26.40;1.00
22578;DHT22;11455;52.390;13.028;2023-08-20T09:39:24;26.50;1.00
22578;DHT22;11455;52.390;13.028;2023-08-20T09:41:58;26.40;1.00
22578;DHT22;11455;52.390;13.028;2023-08-20T09:44:35;26.30;1.00
22578;DHT22;11455;52.390;13.028;2023-08-20T09:47:10;26.20;1.00
22578;DHT22;11455;52.390;13.028;2023-08-20T09:49:47;26.20;1.00
22578;DHT22;11455;52.390;13.028;2023-08-20T09:52:35;26.20;1.00
22578;DHT22;11455;52.390;13.028;2023-08-20T09:55:11;26.30;1.00
22578;DHT22;11455;52.390;13.028;2023-08-20T09:57:48;26.30;1.00
22578;DHT22;11455;52.390;13.028;2023-08-20T10:00:21;26.30;1.00
22578;DHT22;11455;52.390;13.028;2023-08-20T10:02:53;26.40;1.00
22578;DHT22;11455;52.390;13.028;2023-08-20T10:05:26;26.40;1.00
22578;DHT22;11455;52.390;13.028;2023-08-20T10:08:00;26.40;1.00
22578;DHT22;11455;52.390;13.028;2023-08-20T10:10:33;26.50;1.00
22578;DHT22;11455;52.390;13.028;2023-08-20T10:13:06;26.40;1.00
22578;DHT22;11455;52.390;13.028;2023-08-20T10:15:39;26.30;1.00
22578;DHT22;11455;52.390;13.028;2023-08-20T10:18:12;26.40;1.00
22578;DHT22;11455;52.390;13.028;2023-08-20T10:20:45;26.50;1.00
22578;DHT22;11455;52.390;13.028;2023-08-20T10:23:21;26.70;1.00
22578;DHT22;11455;52.390;13.028;2023-08-20T10:26:07;26.80;1.00
22578;DHT22;11455;52.390;13.028;2023-08-20T10:28:41;27.00;1.00
22578;DHT22;11455;52.390;13.028;2023-08-20T10:31:16;27.10;1.00
22578;DHT22;11455;52.390;13.028;2023-08-20T10:33:58;27.10;1.00
22578;DHT22;11455;52.390;13.028;2023-08-20T10:36:41;27.10;1.00
22578;DHT22;11455;52.390;13.028;2023-08-20T10:39:20;26.90;1.00
22578;DHT22;11455;52.390;13.028;2023-08-20T10:42:28;26.90;1.00
22578;DHT22;11455;52.390;13.028;2023-08-20T10:45:07;27.00;1.00
22578;DHT22;11455;52.390;13.028;2023-08-20T10:47:50;27.00;1.00
22578;DHT22;11455;52.390;13.028;2023-08-20T10:50:23;27.10;1.00
22578;DHT22;11455;52.390;13.028;2023-08-20T10:52:56;27.20;1.00
22578;DHT22;11455;52.390;13.028;2023-08-20T10:55:28;27.20;1.00
22578;DHT22;11455;52.390;13.028;2023-08-20T10:58:04;27.20;1.00
22578;DHT22;11455;52.390;13.028;2023-08-20T11:00:37;27.30;1.00
22578;DHT22;11455;52.390;13.028;2023-08-20T11:03:09;27.40;1.00
22578;DHT22;11455;52.390;13.028;2023-08-20T11:05:42;27.40;1.00
22578;DHT22;11455;52.390;13.028;2023-08-20T11:08:14;27.40;1.00
22578;DHT22;11455;52.390;13.028;2023-08-20T11:10:46;27.50;1.00
22578;DHT22;11455;52.390;13.028;2023-08-20T11:13:19;27.50;1.00
22578;DHT22;11455;52.390;13.028;2023-08-20T11:15:51;27.30;1.00
22578;DHT22;11455;52.390;13.028;2023-08-20T11:18:24;27.30;1.00
22578;DHT22;11455;52.390;13.028;2023-08-20T11:20:57;27.20;1.00
22578;DHT22;11455;52.390;13.028;2023-08-20T11:23:29;27.10;1.00
22578;DHT22;11455;52.390;13.028;2023-08-20T11:26:02;27.10;1.00
22578;DHT22;11455;52.390;13.028;2023-08-20T11:28:34;27.20;1.00
22578;DHT22;11455;52.390;13.028;2023-08-20T11:31:07;27.20;1.00
22578;DHT22;11455;52.390;13.028;2023-08-20T11:33:42;27.30;1.00
22578;DHT22;11455;52.390;13.028;2023-08-20T11:36:21;27.30;1.00
22578;DHT22;11455;52.390;13.028;2023-08-20T11:38:54;27.30;1.00
22578;DHT22;11455;52.390;13.028;2023-08-20T11:41:26;27.30;1.00
22578;DHT22;11455;52.390;13.028;2023-08-20T11:43:59;27.20;1.00
22578;DHT22;11455;52.390;13.028;2023-08-20T11:46:42;27.20;1.00
22578;DHT22;11455;52.390;13.028;2023-08-20T11:49:15;27.20;1.00
22578;DHT22;11455;52.390;13.028;2023-08-20T11:51:48;27.30;1.00
22578;DHT22;11455;52.390;13.028;2023-08-20T11:54:22;27.40;1.00
22578;DHT22;11455;52.390;13.028;2023-08-20T11:57:02;27.50;1.00
22578;DHT22;11455;52.390;13.028;2023-08-20T11:59:34;27.60;1.00
22578;DHT22;11455;52.390;13.028;2023-08-20T12:02:06;27.70;1.00
22578;DHT22;11455;52.390;13.028;2023-08-20T12:04:38;27.90;1.00
22578;DHT22;11455;52.390;13.028;2023-08-20T12:07:15;28.10;1.00
22578;DHT22;11455;52.390;13.028;2023-08-20T12:09:47;28.20;1.00
22578;DHT22;11455;52.390;13.028;2023-08-20T12:12:13;28.30;1.00
22578;DHT22;11455;52.390;13.028;2023-08-20T12:14:46;28.40;1.00
22578;DHT22;11455;52.390;13.028;2023-08-20T12:17:18;28.50;1.00
22578;DHT22;11455;52.390;13.028;2023-08-20T12:19:51;28.60;1.00
22578;DHT22;11455;52.390;13.028;2023-08-20T12:22:23;28.70;1.00
22578;DHT22;11455;52.390;13.028;2023-08-20T12:24:55;28.60;1.00
22578;DHT22;11455;52.390;13.028;2023-08-20T12:27:27;28.60;1.00
22578;DHT22;11455;52.390;13.028;2023-08-20T12:29:59;28.60;1.00
22578;DHT22;11455;52.390;13.028;2023-08-20T12:32:33;28.70;1.00
22578;DHT22;11455;52.390;13.028;2023-08-20T12:35:12;28.80;1.00
22578;DHT22;11455;52.390;13.028;2023-08-20T12:37:45;29.00;1.00
22578;DHT22;11455;52.390;13.028;2023-08-20T12:40:17;29.10;1.00
22578;DHT22;11455;52.390;13.028;2023-08-20T12:42:51;29.30;1.00
22578;DHT22;11455;52.390;13.028;2023-08-20T12:45:23;29.40;1.00
22578;DHT22;11455;52.390;13.028;2023-08-20T12:47:55;29.50;1.00
22578;DHT22;11455;52.390;13.028;2023-08-20T12:50:29;29.60;1.00
22578;DHT22;11455;52.390;13.028;2023-08-20T12:53:02;29.70;1.00
22578;DHT22;11455;52.390;13.028;2023-08-20T12:55:28;29.70;1.00
22578;DHT22;11455;52.390;13.028;2023-08-20T12:58:00;29.90;1.00
22578;DHT22;11455;52.390;13.028;2023-08-20T13:00:32;29.90;1.00
22578;DHT22;11455;52.390;13.028;2023-08-20T13:03:05;30.00;1.00
22578;DHT22;11455;52.390;13.028;2023-08-20T13:05:38;30.00;1.00
22578;DHT22;11455;52.390;13.028;2023-08-20T13:08:11;29.70;1.00
22578;DHT22;11455;52.390;13.028;2023-08-20T13:10:55;29.60;1.00
22578;DHT22;11455;52.390;13.028;2023-08-20T13:13:29;29.50;1.00
22578;DHT22;11455;52.390;13.028;2023-08-20T13:16:04;29.60;1.00
22578;DHT22;11455;52.390;13.028;2023-08-20T13:18:39;29.50;1.00
22578;DHT22;11455;52.390;13.028;2023-08-20T13:21:11;29.60;1.00
22578;DHT22;11455;52.390;13.028;2023-08-20T13:23:43;29.60;1.00
22578;DHT22;11455;52.390;13.028;2023-08-20T13:26:16;29.50;1.00
22578;DHT22;11455;52.390;13.028;2023-08-20T13:28:50;29.50;1.00
22578;DHT22;11455;52.390;13.028;2023-08-20T13:31:31;29.40;1.00
22578;DHT22;11455;52.390;13.028;2023-08-20T13:34:10;29.20;1.00
22578;DHT22;11455;52.390;13.028;2023-08-20T13:36:42;29.10;1.00
22578;DHT22;11455;52.390;13.028;2023-08-20T13:39:10;29.00;1.00
22578;DHT22;11455;52.390;13.028;2023-08-20T13:41:48;29.20;1.00
22578;DHT22;11455;52.390;13.028;2023-08-20T13:44:21;29.40;1.00
22578;DHT22;11455;52.390;13.028;2023-08-20T13:46:53;29.60;1.00
22578;DHT22;11455;52.390;13.028;2023-08-20T13:49:25;29.70;1.00
22578;DHT22;11455;52.390;13.028;2023-08-20T13:51:59;29.90;1.00
22578;DHT22;11455;52.390;13.028;2023-08-20T13:54:32;29.90;1.00
22578;DHT22;11455;52.390;13.028;2023-08-20T13:57:05;30.00;1.00
22578;DHT22;11455;52.390;13.028;2023-08-20T13:59:37;29.90;1.00
22578;DHT22;11455;52.390;13.028;2023-08-20T14:02:12;30.00;1.00
22578;DHT22;11455;52.390;13.028;2023-08-20T14:04:45;30.00;1.00
22578;DHT22;11455;52.390;13.028;2023-08-20T14:07:18;30.00;1.00
22578;DHT22;11455;52.390;13.028;2023-08-20T14:09:50;30.00;1.00
22578;DHT22;11455;52.390;13.028;2023-08-20T14:12:22;29.90;1.00
22578;DHT22;11455;52.390;13.028;2023-08-20T14:14:54;30.00;1.00
22578;DHT22;11455;52.390;13.028;2023-08-20T14:17:27;30.10;1.00
22578;DHT22;11455;52.390;13.028;2023-08-20T14:20:02;30.10;1.00
22578;DHT22;11455;52.390;13.028;2023-08-20T14:22:35;30.20;1.00
22578;DHT22;11455;52.390;13.028;2023-08-20T14:25:08;30.30;1.00
22578;DHT22;11455;52.390;13.028;2023-08-20T14:27:41;30.20;1.00
22578;DHT22;11455;52.390;13.028;2023-08-20T14:30:13;30.20;1.00
22578;DHT22;11455;52.390;13.028;2023-08-20T14:32:39;30.20;1.00
22578;DHT22;11455;52.390;13.028;2023-08-20T14:35:12;30.10;1.00
22578;DHT22;11455;52.390;13.028;2023-08-20T14:37:46;30.20;1.00
22578;DHT22;11455;52.390;13.028;2023-08-20T14:40:20;30.50;1.00
22578;DHT22;11455;52.390;13.028;2023-08-20T14:42:52;30.50;1.00
22578;DHT22;11455;52.390;13.028;2023-08-20T14:45:24;30.50;1.00
22578;DHT22;11455;52.390;13.028;2023-08-20T14:47:59;30.60;1.00
22578;DHT22;11455;52.390;13.028;2023-08-20T14:50:31;30.60;1.00
22578;DHT22;11455;52.390;13.028;2023-08-20T14:53:04;30.50;1.00
22578;DHT22;11455;52.390;13.028;2023-08-20T14:55:39;30.60;99.90
22578;DHT22;11455;52.390;13.028;2023-08-20T14:58:11;30.60;1.00
22578;DHT22;11455;52.390;13.028;2023-08-20T15:00:43;30.60;99.90
22578;DHT22;11455;52.390;13.028;2023-08-20T15:03:15;30.50;1.00
22578;DHT22;11455;52.390;13.028;2023-08-20T15:05:48;30.50;1.00
22578;DHT22;11455;52.390;13.028;2023-08-20T15:08:20;30.60;1.00
22578;DHT22;11455;52.390;13.028;2023-08-20T15:10:59;30.50;1.00
22578;DHT22;11455;52.390;13.028;2023-08-20T15:13:32;30.40;1.00
22578;DHT22;11455;52.390;13.028;2023-08-20T15:16:04;30.40;1.00
22578;DHT22;11455;52.390;13.028;2023-08-20T15:18:36;30.50;1.00
22578;DHT22;11455;52.390;13.028;2023-08-20T15:21:08;30.60;1.00
22578;DHT22;11455;52.390;13.028;2023-08-20T15:23:41;30.40;1.00
22578;DHT22;11455;52.390;13.028;2023-08-20T15:26:13;30.30;1.00
22578;DHT22;11455;52.390;13.028;2023-08-20T15:28:45;30.20;1.00
22578;DHT22;11455;52.390;13.028;2023-08-20T15:31:17;30.30;1.00
22578;DHT22;11455;52.390;13.028;2023-08-20T15:33:51;30.30;1.00
22578;DHT22;11455;52.390;13.028;2023-08-20T15:36:30;30.40;1.00
22578;DHT22;11455;52.390;13.028;2023-08-20T15:39:02;30.50;1.00
22578;DHT22;11455;52.390;13.028;2023-08-20T15:41:38;30.60;1.00
22578;DHT22;11455;52.390;13.028;2023-08-20T15:44:10;30.50;1.00
22578;DHT22;11455;52.390;13.028;2023-08-20T15:46:42;30.30;1.00
22578;DHT22;11455;52.390;13.028;2023-08-20T15:49:14;30.20;1.00
22578;DHT22;11455;52.390;13.028;2023-08-20T15:51:46;30.10;1.00
22578;DHT22;11455;52.390;13.028;2023-08-20T15:54:18;30.10;1.00
22578;DHT22;11455;52.390;13.028;2023-08-20T15:56:54;30.10;1.00
22578;DHT22;11455;52.390;13.028;2023-08-20T15:59:26;30.20;1.00
22578;DHT22;11455;52.390;13.028;2023-08-20T16:01:58;30.20;1.00
22578;DHT22;11455;52.390;13.028;2023-08-20T16:04:30;30.10;1.00
22578;DHT22;11455;52.390;13.028;2023-08-20T16:07:02;30.10;1.00